Time;durP1;ratioP1;P1;durP2;ratioP2;P2;SDS_P1;SDS_P2;PMS_P1;PMS_P2;Temp;Humidity;BMP_temperature;BMP_pressure;BME280_temperature;BME280_humidity;BME280_pressure;Samples;Min_cycle;Max_cycle;Signal;HPM_P1;HPM_P2
2022/05/22 00:00:07;;;;;;;351.37;198.53;;;;;;;21.12;52.25;99100.03;336051;29;1346;-80
2022/05/22 00:00:18;;;;;;;352.63;200.05;;;;;;;21.13;52.29;99105.22;338446;29;1449;-80
2022/05/22 00:00:28;;;;;;;352.58;199.10;;;;;;;21.15;52.15;99110.41;337792;29;1425;-80
2022/05/22 00:00:42;;;;;;;354.73;200.03;;;;;;;21.13;52.32;99113.22;337469;29;1215;-80
2022/05/22 00:00:52;;;;;;;353.98;202.70;;;;;;;21.15;52.38;99113.06;339689;29;1303;-80
2022/05/22 00:01:03;;;;;;;353.50;204.87;;;;;;;21.15;52.21;99107.75;340516;29;1596;-80
2022/05/22 00:01:14;;;;;;;355.30;206.43;;;;;;;21.14;52.26;99106.06;337946;29;1460;-80
2022/05/22 00:01:24;;;;;;;360.05;207.73;;;;;;;21.16;52.21;99109.44;338237;29;1425;-80
2022/05/22 00:01:35;;;;;;;361.40;206.20;;;;;;;21.17;52.22;99116.44;338489;29;1374;-80
2022/05/22 00:01:46;;;;;;;359.30;203.93;;;;;;;21.14;52.42;99108.72;338012;29;1546;-79
2022/05/22 00:01:57;;;;;;;356.57;206.73;;;;;;;21.15;52.04;99113.06;337748;29;1429;-79
2022/05/22 00:02:08;;;;;;;357.25;205.52;;;;;;;21.16;52.02;99112.09;338604;29;895;-79
2022/05/22 00:02:18;;;;;;;353.60;199.75;;;;;;;21.10;52.15;99116.16;339907;29;1397;-79
2022/05/22 00:02:28;;;;;;;352.33;197.87;;;;;;;21.13;52.15;99117.69;337448;29;1540;-79
2022/05/22 00:02:40;;;;;;;350.23;196.98;;;;;;;21.14;52.24;99116.72;338677;29;1402;-79
2022/05/22 00:02:50;;;;;;;349.92;197.27;;;;;;;21.10;52.26;99108.16;338486;29;1388;-79
2022/05/22 00:03:01;;;;;;;349.48;192.98;;;;;;;21.09;52.46;99109.16;338288;29;1676;-79
2022/05/22 00:03:11;;;;;;;353.27;198.70;;;;;;;21.09;52.30;99108.31;338672;29;1571;-79
2022/05/22 00:03:21;;;;;;;356.08;202.93;;;;;;;21.12;52.48;99118.66;338993;29;1462;-79
2022/05/22 00:03:32;;;;;;;358.80;208.20;;;;;;;21.09;52.23;99108.31;339743;29;1382;-79
2022/05/22 00:03:42;;;;;;;356.63;203.25;;;;;;;21.13;52.43;99115.03;337654;29;1388;-79
2022/05/22 00:03:53;;;;;;;354.60;199.13;;;;;;;21.13;52.31;99110.53;340076;29;1504;-79
2022/05/22 00:04:03;;;;;;;351.40;196.82;;;;;;;21.14;52.50;99114.88;338570;29;1457;-79
2022/05/22 00:04:14;;;;;;;354.20;203.23;;;;;;;21.10;52.63;99110.00;338494;29;1318;-79
2022/05/22 00:04:26;;;;;;;354.30;204.07;;;;;;;21.08;52.45;99101.31;339556;29;1358;-81
2022/05/22 00:04:37;;;;;;;352.17;203.43;;;;;;;21.11;52.43;99112.50;337948;29;1438;-80
2022/05/22 00:04:47;;;;;;;350.48;203.05;;;;;;;21.15;52.31;99113.06;340612;28;1476;-80
2022/05/22 00:04:58;;;;;;;354.17;205.63;;;;;;;21.14;52.17;99111.38;340258;29;1311;-80
2022/05/22 00:05:10;;;;;;;355.63;205.13;;;;;;;21.16;52.47;99106.75;339899;29;1406;-80
2022/05/22 00:05:21;;;;;;;355.95;206.07;;;;;;;21.17;52.29;99119.94;336253;29;1423;-80
2022/05/22 00:05:32;;;;;;;354.98;205.25;;;;;;;21.20;52.42;99110.81;335362;29;3564;-80
2022/05/22 00:05:42;;;;;;;354.77;206.00;;;;;;;21.21;52.31;99123.19;337737;29;3093;-80
2022/05/22 00:05:52;;;;;;;358.63;209.17;;;;;;;21.20;52.02;99111.66;340768;29;1354;-80
2022/05/22 00:06:03;;;;;;;361.33;211.30;;;;;;;21.19;52.13;99112.66;337928;29;1800;-80
2022/05/22 00:06:13;;;;;;;361.00;212.10;;;;;;;21.21;52.29;99108.06;336809;29;3051;-80
2022/05/22 00:06:24;;;;;;;355.50;208.93;;;;;;;21.22;52.32;99108.91;337310;29;1280;-80
2022/05/22 00:06:35;;;;;;;354.67;204.50;;;;;;;21.22;52.30;99114.22;337572;29;1351;-80
2022/05/22 00:06:45;;;;;;;356.55;202.40;;;;;;;21.20;52.15;99116.97;337810;29;1505;-80
2022/05/22 00:06:56;;;;;;;361.90;204.10;;;;;;;21.20;52.18;99116.16;339780;29;1470;-80
2022/05/22 00:07:06;;;;;;;361.08;204.70;;;;;;;21.21;52.46;99116.03;337738;29;1429;-80
2022/05/22 00:07:17;;;;;;;360.50;207.33;;;;;;;21.21;52.29;99121.34;338788;29;1429;-80
2022/05/22 00:07:27;;;;;;;356.77;208.55;;;;;;;21.19;52.44;99109.16;338333;29;1449;-80
2022/05/22 00:07:38;;;;;;;355.97;208.47;;;;;;;21.20;52.44;99108.16;341193;29;1393;-80
2022/05/22 00:07:48;;;;;;;354.67;206.13;;;;;;;21.18;52.26;99118.09;338869;29;1912;-80
2022/05/22 00:07:58;;;;;;;358.73;206.80;;;;;;;21.19;52.36;99109.16;337221;29;1390;-80
2022/05/22 00:08:09;;;;;;;358.52;209.02;;;;;;;21.19;52.14;99109.16;341133;29;1409;-80
2022/05/22 00:08:20;;;;;;;360.13;211.13;;;;;;;21.20;52.43;99105.50;339866;29;1509;-80
2022/05/22 00:08:31;;;;;;;356.77;209.27;;;;;;;21.19;52.46;99114.47;338830;29;1334;-80
2022/05/22 00:08:41;;;;;;;357.43;207.50;;;;;;;21.18;52.28;99110.13;338515;29;1437;-80
2022/05/22 00:08:51;;;;;;;356.87;205.30;;;;;;;21.15;52.41;99110.41;338685;29;1267;-80
2022/05/22 00:09:02;;;;;;;359.42;208.63;;;;;;;21.18;52.20;99108.31;338058;29;1425;-80
2022/05/22 00:09:13;;;;;;;362.17;210.13;;;;;;;21.18;52.22;99113.63;338915;29;1508;-80
2022/05/22 00:09:23;;;;;;;362.60;211.03;;;;;;;21.17;52.14;99111.09;336297;29;1560;-80
2022/05/22 00:09:34;;;;;;;359.58;210.32;;;;;;;21.19;52.28;99114.47;336898;29;1418;-80
2022/05/22 00:09:45;;;;;;;355.98;209.43;;;;;;;21.18;52.37;99112.78;338952;29;1513;-80
2022/05/22 00:09:55;;;;;;;359.53;213.30;;;;;;;21.20;52.09;99111.66;339393;29;1529;-80
2022/05/22 00:10:06;;;;;;;359.00;211.40;;;;;;;21.22;52.04;99114.22;339678;29;1458;-80
2022/05/22 00:10:16;;;;;;;359.75;211.38;;;;;;;21.21;52.44;99113.38;338160;29;1330;-80
2022/05/22 00:10:27;;;;;;;355.70;208.43;;;;;;;21.21;52.31;99107.22;339289;29;1334;-80
2022/05/22 00:10:37;;;;;;;358.87;209.23;;;;;;;21.22;52.29;99108.91;338629;29;1240;-80
2022/05/22 00:10:47;;;;;;;358.53;210.23;;;;;;;21.23;52.27;99113.19;338835;29;1496;-80
2022/05/22 00:10:58;;;;;;;361.27;209.70;;;;;;;21.23;52.26;99110.53;338469;29;1437;-80
2022/05/22 00:11:08;;;;;;;360.15;210.27;;;;;;;21.17;52.14;99103.13;337819;29;1291;-80
2022/05/22 00:11:19;;;;;;;362.27;211.00;;;;;;;21.19;52.17;99109.16;338141;29;1521;-80
2022/05/22 00:11:29;;;;;;;362.40;211.30;;;;;;;21.19;52.18;99111.81;338525;29;1370;-80
2022/05/22 00:11:44;;;;;;;362.10;213.93;;;;;;;21.19;52.31;99109.16;341159;29;1473;-80
2022/05/22 00:11:55;;;;;;;355.67;211.98;;;;;;;21.19;52.02;99112.66;340700;29;1501;-80
2022/05/22 00:12:07;;;;;;;353.75;210.15;;;;;;;21.20;52.27;99110.81;338695;29;1429;-80
2022/05/22 00:12:17;;;;;;;353.15;208.43;;;;;;;21.20;52.33;99100.19;337777;29;1416;-80
2022/05/22 00:12:27;;;;;;;352.67;205.90;;;;;;;21.21;52.14;99117.84;338558;29;1473;-80
2022/05/22 00:12:39;;;;;;;355.52;207.18;;;;;;;21.21;52.36;99108.06;338554;29;1375;-80
2022/05/22 00:12:49;;;;;;;355.63;208.18;;;;;;;21.22;52.35;99103.56;340010;29;1620;-80
2022/05/22 00:13:00;;;;;;;359.65;214.65;;;;;;;21.22;52.48;99108.91;338727;29;1397;-80
2022/05/22 00:13:10;;;;;;;361.00;217.33;;;;;;;21.21;52.28;99112.53;338419;29;1473;-79
2022/05/22 00:13:21;;;;;;;360.85;212.52;;;;;;;21.17;52.17;99105.78;338210;29;1430;-79
2022/05/22 00:13:31;;;;;;;358.43;208.37;;;;;;;21.19;52.48;99109.97;341062;29;1509;-79
2022/05/22 00:13:42;;;;;;;356.97;206.30;;;;;;;21.19;52.49;99115.31;338542;29;1457;-79
2022/05/22 00:13:52;;;;;;;356.58;207.55;;;;;;;21.20;52.57;99113.47;338442;29;1330;-79
2022/05/22 00:14:02;;;;;;;355.80;207.70;;;;;;;21.17;52.65;99106.63;339067;29;1568;-79
2022/05/22 00:14:13;;;;;;;358.88;206.98;;;;;;;21.19;52.74;99109.16;340205;29;1410;-80
2022/05/22 00:14:25;;;;;;;359.17;210.47;;;;;;;21.17;52.49;99111.09;337700;29;1310;-80
2022/05/22 00:14:36;;;;;;;358.40;210.45;;;;;;;21.18;52.47;99102.13;341129;28;3085;-80
2022/05/22 00:14:46;;;;;;;355.77;213.70;;;;;;;21.19;52.76;99098.50;338463;29;3427;-80
2022/05/22 00:14:57;;;;;;;357.63;213.57;;;;;;;21.17;52.57;99106.63;338148;29;2944;-80
2022/05/22 00:15:08;;;;;;;366.37;217.23;;;;;;;21.19;52.39;99107.31;340218;29;1472;-80
2022/05/22 00:15:21;;;;;;;365.58;216.63;;;;;;;21.20;52.92;99110.81;340531;28;2762;-80
2022/05/22 00:15:32;;;;;;;358.00;214.40;;;;;;;21.17;52.63;99100.47;337672;29;1414;-80
2022/05/22 00:16:36;;;;;;;353.38;211.40;;;;;;;21.18;52.74;99107.47;337217;29;1257;-80
2022/05/22 00:16:46;;;;;;;347.85;203.13;;;;;;;21.17;52.60;99105.78;340457;29;1255;-80
2022/05/22 00:16:57;;;;;;;345.45;200.85;;;;;;;21.18;52.83;99102.13;337215;29;1426;-79
2022/05/22 00:17:08;;;;;;;352.13;204.68;;;;;;;21.16;52.84;99096.13;339617;29;1500;-79
2022/05/22 00:17:18;;;;;;;359.23;206.10;;;;;;;21.13;52.89;99094.56;338943;29;1446;-79
2022/05/22 00:17:29;;;;;;;357.80;204.87;;;;;;;21.15;52.88;99097.09;340227;29;1434;-80
2022/05/22 00:17:39;;;;;;;356.30;204.00;;;;;;;21.14;52.82;99101.59;339979;29;1304;-80
2022/05/22 00:17:49;;;;;;;357.17;206.33;;;;;;;21.14;52.97;99096.25;340131;29;1511;-80
2022/05/22 00:18:00;;;;;;;360.30;207.60;;;;;;;21.20;52.73;99108.16;338433;29;1366;-80
2022/05/22 00:18:10;;;;;;;362.92;209.25;;;;;;;21.16;53.05;99093.47;339793;29;1342;-80
2022/05/22 00:18:21;;;;;;;362.67;211.13;;;;;;;21.20;52.55;99103.69;339799;29;1442;-80
2022/05/22 00:18:31;;;;;;;363.55;210.60;;;;;;;21.21;52.88;99101.88;339786;29;1543;-80
2022/05/22 00:18:41;;;;;;;360.20;209.63;;;;;;;21.17;52.95;99100.47;339947;29;1386;-80
2022/05/22 00:18:52;;;;;;;358.83;210.50;;;;;;;21.21;52.75;99107.22;341312;29;1424;-80
2022/05/22 00:19:03;;;;;;;358.50;211.95;;;;;;;21.21;52.90;99101.88;337176;29;1397;-80
2022/05/22 00:19:16;;;;;;;360.98;211.93;;;;;;;21.21;52.79;99101.88;337854;29;1530;-80
2022/05/22 00:19:28;;;;;;;359.00;206.80;;;;;;;21.21;52.99;99102.72;338186;29;1419;-80
2022/05/22 00:19:38;;;;;;;354.88;204.85;;;;;;;21.23;52.84;99099.88;337484;29;1207;-80
2022/05/22 00:19:49;;;;;;;350.88;201.73;;;;;;;21.24;53.00;99101.56;338622;29;1185;-80
2022/05/22 00:19:59;;;;;;;352.67;205.67;;;;;;;21.24;53.05;99097.09;338746;29;1291;-80
2022/05/22 00:20:11;;;;;;;351.80;202.90;;;;;;;21.27;52.66;99100.44;340938;29;1488;-80
2022/05/22 00:20:22;;;;;;;351.95;204.70;;;;;;;21.26;53.05;99104.94;338917;29;882;-80
2022/05/22 00:20:32;;;;;;;352.27;205.77;;;;;;;21.25;52.86;99104.09;340642;29;1325;-80
2022/05/22 00:20:43;;;;;;;353.97;206.90;;;;;;;21.25;52.76;99097.94;338701;29;1453;-80
2022/05/22 00:20:53;;;;;;;355.73;207.90;;;;;;;21.24;52.88;99096.25;337165;29;1552;-80
2022/05/22 00:21:04;;;;;;;355.50;207.05;;;;;;;21.24;53.06;99098.91;336856;29;1387;-80
2022/05/22 00:21:14;;;;;;;357.10;207.63;;;;;;;21.22;52.88;99104.41;338428;29;1394;-78
2022/05/22 00:21:24;;;;;;;360.05;211.25;;;;;;;21.22;52.98;99098.25;337325;29;1155;-78
2022/05/22 00:21:35;;;;;;;362.97;211.43;;;;;;;21.22;53.20;99095.59;338805;29;1595;-78
2022/05/22 00:21:46;;;;;;;360.88;207.73;;;;;;;21.17;53.26;99090.66;339849;29;1425;-78
2022/05/22 00:21:56;;;;;;;360.50;205.50;;;;;;;21.21;52.98;99097.41;338433;29;1421;-78
2022/05/22 00:22:07;;;;;;;360.50;206.00;;;;;;;21.22;53.04;99101.75;339864;29;1465;-78
2022/05/22 00:22:17;;;;;;;362.00;210.53;;;;;;;21.21;53.07;99096.56;339772;29;1466;-79
2022/05/22 00:22:27;;;;;;;362.83;211.48;;;;;;;21.20;53.16;99093.03;339377;29;1544;-79
2022/05/22 00:22:38;;;;;;;361.27;208.33;;;;;;;21.22;53.43;99103.56;338654;29;1579;-79
2022/05/22 00:22:49;;;;;;;357.52;206.35;;;;;;;21.19;53.12;99099.34;340454;29;1353;-80
2022/05/22 00:22:59;;;;;;;354.17;201.50;;;;;;;21.19;53.36;99101.16;336469;29;1437;-80
2022/05/22 00:23:10;;;;;;;354.77;204.03;;;;;;;21.19;53.43;99098.50;339615;29;1442;-80
2022/05/22 00:23:20;;;;;;;357.42;205.18;;;;;;;21.20;53.50;99106.34;339921;29;1476;-80
2022/05/22 00:23:33;;;;;;;359.73;209.47;;;;;;;21.19;53.41;99101.16;337261;29;1402;-80
2022/05/22 00:23:43;;;;;;;359.20;211.07;;;;;;;21.18;53.24;99097.66;336898;29;1685;-80
2022/05/22 00:23:54;;;;;;;359.10;208.47;;;;;;;21.16;53.82;99096.13;335041;29;3340;-79
2022/05/22 00:24:05;;;;;;;358.20;208.45;;;;;;;21.17;53.41;99103.13;337559;29;2861;-79
2022/05/22 00:24:17;;;;;;;359.05;210.20;;;;;;;21.16;53.58;99104.94;339841;29;1485;-79
2022/05/22 00:24:29;;;;;;;362.27;216.07;;;;;;;21.18;53.46;99096.81;337534;29;2759;-79
2022/05/22 00:24:40;;;;;;;364.25;218.55;;;;;;;21.17;53.95;99097.81;338862;29;1386;-79
2022/05/22 00:24:52;;;;;;;357.60;210.87;;;;;;;21.16;53.67;99096.97;339789;29;1461;-79
2022/05/22 00:25:05;;;;;;;355.00;207.38;;;;;;;21.16;53.69;99096.13;337022;29;1387;-79
2022/05/22 00:25:16;;;;;;;358.23;209.50;;;;;;;21.14;53.43;99095.41;335769;29;1452;-79
2022/05/22 00:25:26;;;;;;;360.05;212.27;;;;;;;21.14;53.40;99098.91;339276;29;1353;-79
2022/05/22 00:25:36;;;;;;;359.47;210.27;;;;;;;21.15;53.17;99092.63;338772;29;1501;-79
2022/05/22 00:25:48;;;;;;;358.33;207.60;;;;;;;21.16;53.48;99099.63;335935;29;1288;-79
2022/05/22 00:25:59;;;;;;;355.23;202.88;;;;;;;21.13;53.58;99099.91;340955;28;1441;-79
2022/05/22 00:26:09;;;;;;;358.00;207.37;;;;;;;21.14;53.88;99095.41;341798;28;1602;-79
2022/05/22 00:26:19;;;;;;;361.90;210.05;;;;;;;21.14;53.73;99100.75;338412;29;1399;-79
2022/05/22 00:26:30;;;;;;;364.67;214.43;;;;;;;21.15;53.90;99102.41;336012;29;1500;-79
2022/05/22 00:26:40;;;;;;;363.83;212.80;;;;;;;21.11;53.82;99091.22;337093;29;1423;-79
2022/05/22 00:26:51;;;;;;;362.45;209.05;;;;;;;21.10;53.67;99094.03;339547;29;1476;-79
2022/05/22 00:27:02;;;;;;;362.97;207.63;;;;;;;21.16;53.91;99104.09;339776;29;1516;-79
2022/05/22 00:27:12;;;;;;;359.42;205.32;;;;;;;21.12;53.94;99089.41;337389;29;1287;-79
2022/05/22 00:27:23;;;;;;;355.23;202.52;;;;;;;21.16;53.91;99098.78;339772;29;1262;-79
2022/05/22 00:27:34;;;;;;;352.95;203.20;;;;;;;21.10;53.77;99088.69;339514;29;1612;-79
2022/05/22 00:27:45;;;;;;;354.75;203.60;;;;;;;21.17;54.09;99097.81;339376;29;1484;-79
2022/05/22 00:27:55;;;;;;;355.47;203.47;;;;;;;21.17;54.14;99100.47;338534;29;1322;-79
2022/05/22 00:28:05;;;;;;;355.85;204.00;;;;;;;21.17;54.33;99100.47;337262;29;1286;-79
2022/05/22 00:28:16;;;;;;;354.53;203.17;;;;;;;21.17;54.13;99097.81;341280;28;1326;-79
2022/05/22 00:28:30;;;;;;;355.27;204.48;;;;;;;21.16;53.83;99096.97;339605;29;1462;-80
2022/05/22 00:28:40;;;;;;;353.50;205.55;;;;;;;21.15;53.90;99097.09;340028;28;1298;-79
2022/05/22 00:28:51;;;;;;;352.43;205.33;;;;;;;21.18;54.13;99099.47;335270;29;1583;-79
2022/05/22 00:29:01;;;;;;;357.85;207.90;;;;;;;21.18;54.00;99102.13;338770;29;1411;-79
2022/05/22 00:29:12;;;;;;;357.10;206.43;;;;;;;21.17;53.68;99095.97;337197;29;1338;-79
2022/05/22 00:29:23;;;;;;;356.95;207.07;;;;;;;21.15;53.83;99099.75;339389;29;1348;-79
2022/05/22 00:29:33;;;;;;;357.08;208.82;;;;;;;21.19;53.91;99095.84;342312;28;1253;-79
2022/05/22 00:29:44;;;;;;;357.00;211.83;;;;;;;21.20;53.70;99094.84;337962;29;1422;-79
2022/05/22 00:29:54;;;;;;;357.13;209.23;;;;;;;21.19;53.47;99098.50;338308;29;1290;-79
2022/05/22 00:30:05;;;;;;;356.63;209.60;;;;;;;21.19;53.55;99101.16;339711;29;1422;-79
2022/05/22 00:30:16;;;;;;;356.77;209.10;;;;;;;21.15;53.41;99092.63;339445;29;1523;-79
2022/05/22 00:30:26;;;;;;;357.92;209.00;;;;;;;21.17;53.69;99097.81;336829;29;1365;-79
2022/05/22 00:30:36;;;;;;;358.63;207.83;;;;;;;21.20;53.62;99092.19;339504;29;1347;-79
2022/05/22 00:30:47;;;;;;;358.55;203.07;;;;;;;21.18;53.58;99094.16;339706;29;1524;-79
2022/05/22 00:30:57;;;;;;;355.87;204.33;;;;;;;21.19;53.29;99103.81;339675;29;1323;-79
2022/05/22 00:31:08;;;;;;;355.80;205.23;;;;;;;21.21;53.10;99092.09;339580;29;1812;-79
2022/05/22 00:31:18;;;;;;;360.53;209.03;;;;;;;21.24;53.52;99098.91;339489;29;1232;-79
2022/05/22 00:31:28;;;;;;;360.87;207.77;;;;;;;21.20;53.63;99097.50;339995;28;1453;-79
2022/05/22 00:31:39;;;;;;;362.00;207.38;;;;;;;21.22;53.39;99099.09;340547;28;1345;-79
2022/05/22 00:31:49;;;;;;;354.50;203.00;;;;;;;21.23;53.71;99100.72;338160;29;1397;-79
2022/05/22 00:32:00;;;;;;;352.73;201.32;;;;;;;21.25;53.30;99106.75;339825;29;1433;-81
2022/05/22 00:32:10;;;;;;;353.23;203.70;;;;;;;21.26;53.08;99099.59;339191;29;1522;-80
2022/05/22 00:32:21;;;;;;;354.88;205.32;;;;;;;21.27;53.58;99095.97;336075;29;1454;-80
2022/05/22 00:32:31;;;;;;;355.93;207.57;;;;;;;21.25;53.17;99093.44;338765;29;1533;-80
2022/05/22 00:32:42;;;;;;;353.50;203.15;;;;;;;21.25;53.51;99096.09;341537;28;1517;-80
2022/05/22 00:32:52;;;;;;;355.85;204.20;;;;;;;21.28;53.35;99096.81;339081;29;1410;-80
2022/05/22 00:33:05;;;;;;;356.07;204.00;;;;;;;21.27;53.12;99101.28;338324;29;3000;-80
2022/05/22 00:33:15;;;;;;;356.50;205.48;;;;;;;21.27;53.06;99089.81;340082;28;2920;-80
2022/05/22 00:33:27;;;;;;;358.50;208.70;;;;;;;21.29;53.31;99093.16;337290;29;1466;-79
2022/05/22 00:33:38;;;;;;;359.17;208.48;;;;;;;21.28;53.13;99092.31;336627;29;1697;-79
2022/05/22 00:33:48;;;;;;;358.43;208.53;;;;;;;21.28;53.33;99092.31;336444;29;1298;-79
2022/05/22 00:33:58;;;;;;;356.08;207.95;;;;;;;21.26;53.11;99088.97;336960;29;1647;-79
2022/05/22 00:34:09;;;;;;;358.90;207.33;;;;;;;21.28;53.54;99080.84;339730;29;1358;-79
2022/05/22 00:34:19;;;;;;;358.80;206.30;;;;;;;21.25;53.25;99087.28;338598;29;1378;-79
2022/05/22 00:34:30;;;;;;;357.13;205.07;;;;;;;21.28;53.05;99092.31;337225;29;1343;-79
2022/05/22 00:34:40;;;;;;;354.25;202.18;;;;;;;21.28;53.08;99089.66;339045;29;1339;-79
2022/05/22 00:34:51;;;;;;;352.03;200.40;;;;;;;21.29;52.97;99090.50;342053;28;1512;-79
2022/05/22 00:35:01;;;;;;;351.15;201.95;;;;;;;21.27;53.40;99089.81;339800;29;1516;-79
2022/05/22 00:35:12;;;;;;;354.27;206.57;;;;;;;21.27;53.26;99089.81;339724;29;1488;-79
2022/05/22 00:35:22;;;;;;;355.98;206.82;;;;;;;21.26;53.29;99094.28;338812;29;1246;-79
2022/05/22 00:35:32;;;;;;;359.73;209.07;;;;;;;21.26;53.06;99088.97;341114;28;1449;-79
2022/05/22 00:35:43;;;;;;;355.63;205.37;;;;;;;21.26;53.31;99091.63;339277;29;1301;-79
2022/05/22 00:35:53;;;;;;;356.85;208.07;;;;;;;21.27;53.11;99095.13;338540;29;1275;-79
2022/05/22 00:36:04;;;;;;;353.57;205.03;;;;;;;21.25;53.58;99092.59;339988;29;1426;-79
2022/05/22 00:36:15;;;;;;;353.65;203.02;;;;;;;21.23;53.13;99086.59;339680;29;1446;-79
2022/05/22 00:36:25;;;;;;;350.48;198.65;;;;;;;21.27;53.20;99089.81;338176;29;1268;-79
2022/05/22 00:36:36;;;;;;;351.50;200.50;;;;;;;21.26;52.93;99083.63;338528;29;1513;-79
2022/05/22 00:36:46;;;;;;;351.83;202.82;;;;;;;21.27;53.42;99090.63;338292;29;1462;-79
2022/05/22 00:36:56;;;;;;;353.60;206.67;;;;;;;21.25;53.44;99089.94;336257;29;1431;-79
2022/05/22 00:37:07;;;;;;;353.83;207.48;;;;;;;21.26;53.60;99088.97;337282;29;1592;-79
2022/05/22 00:37:17;;;;;;;356.00;208.73;;;;;;;21.27;53.53;99084.47;339950;29;1473;-79
2022/05/22 00:37:28;;;;;;;353.30;204.10;;;;;;;21.27;53.59;99079.16;341059;29;1485;-79
2022/05/22 00:37:38;;;;;;;353.33;205.13;;;;;;;21.27;53.60;99081.81;339699;29;1477;-79
2022/05/22 00:37:48;;;;;;;351.83;205.40;;;;;;;21.27;53.71;99090.63;339687;29;1481;-80
2022/05/22 00:37:59;;;;;;;352.47;206.03;;;;;;;21.27;53.56;99084.47;339573;29;1430;-79
2022/05/22 00:38:09;;;;;;;352.03;205.53;;;;;;;21.26;53.20;99088.97;337487;29;1432;-79
2022/05/22 00:38:21;;;;;;;353.42;204.68;;;;;;;21.27;53.50;99079.16;335382;29;1490;-79
2022/05/22 00:38:32;;;;;;;353.90;203.90;;;;;;;21.23;53.55;99075.94;339430;29;1409;-79
2022/05/22 00:38:42;;;;;;;355.83;204.07;;;;;;;21.27;53.16;99080.00;339736;29;1532;-79
2022/05/22 00:38:52;;;;;;;358.48;207.15;;;;;;;21.28;53.51;99086.16;337339;29;1414;-79
2022/05/22 00:39:03;;;;;;;361.67;210.17;;;;;;;21.26;53.45;99091.63;342052;28;1221;-79
2022/05/22 00:39:13;;;;;;;361.73;208.75;;;;;;;21.25;53.49;99074.81;341557;28;1665;-79
2022/05/22 00:39:24;;;;;;;359.77;208.37;;;;;;;21.28;53.74;99087.00;338358;29;1339;-79
2022/05/22 00:39:35;;;;;;;357.20;208.30;;;;;;;21.27;53.56;99079.16;339320;29;1505;-79
2022/05/22 00:39:45;;;;;;;357.20;212.52;;;;;;;21.27;53.70;99085.31;339153;29;1367;-79
2022/05/22 00:39:56;;;;;;;356.73;210.60;;;;;;;21.28;53.91;99081.66;337478;29;1415;-79
2022/05/22 00:40:07;;;;;;;356.10;209.70;;;;;;;21.28;53.65;99084.34;339701;29;1464;-79
2022/05/22 00:40:18;;;;;;;355.98;208.07;;;;;;;21.27;53.89;99080.00;340192;29;1416;-79
2022/05/22 00:40:28;;;;;;;356.45;208.55;;;;;;;21.26;53.86;99073.00;339951;29;1464;-79
2022/05/22 00:40:39;;;;;;;356.37;207.00;;;;;;;21.26;53.76;99073.00;340071;29;1458;-79
2022/05/22 00:40:49;;;;;;;355.67;208.02;;;;;;;21.27;53.69;99084.47;337406;29;1430;-79
2022/05/22 00:40:59;;;;;;;354.47;208.00;;;;;;;21.27;53.69;99074.66;338634;29;1481;-79
2022/05/22 00:41:10;;;;;;;353.63;207.43;;;;;;;21.28;53.80;99084.34;340298;29;1629;-79
2022/05/22 00:41:21;;;;;;;353.27;205.83;;;;;;;21.26;53.71;99073.00;339551;29;1470;-79
2022/05/22 00:41:32;;;;;;;353.90;205.40;;;;;;;21.27;53.58;99073.84;337420;29;1598;-79
2022/05/22 00:41:47;;;;;;;356.05;206.48;;;;;;;21.28;53.70;99078.16;336664;29;1419;-80
2022/05/22 00:41:58;;;;;;;356.10;208.35;;;;;;;21.27;53.80;99069.34;337594;29;1453;-80
2022/05/22 00:42:19;;;;;;;357.20;209.50;;;;;;;21.26;53.85;99078.31;339744;29;1536;-80
2022/05/22 00:42:29;;;;;;;353.60;206.38;;;;;;;21.26;53.83;99073.00;337530;29;2841;-80
2022/05/22 00:42:43;;;;;;;356.27;211.17;;;;;;;21.27;54.13;99074.66;336710;29;1666;-79
2022/05/22 00:42:53;;;;;;;361.77;212.18;;;;;;;21.29;53.95;99079.84;338768;29;2791;-79
2022/05/22 00:43:04;;;;;;;362.20;213.07;;;;;;;21.24;54.27;99069.63;337115;29;1498;-79
2022/05/22 00:43:35;;;;;;;357.30;207.55;;;;;;;21.30;54.43;99073.53;336665;29;1426;-79
2022/05/22 00:43:48;;;;;;;351.58;205.32;;;;;;;21.31;54.08;99078.72;338102;29;1326;-79
2022/05/22 00:43:58;;;;;;;354.80;209.75;;;;;;;21.30;53.86;99073.53;340115;29;1482;-79
2022/05/22 00:44:09;;;;;;;357.48;213.77;;;;;;;21.30;53.73;99069.06;338550;29;1550;-79
2022/05/22 00:44:19;;;;;;;360.23;213.17;;;;;;;21.29;53.68;99071.88;337791;29;1375;-79
2022/05/22 00:44:30;;;;;;;360.58;214.48;;;;;;;21.32;54.04;99067.09;339975;29;1501;-79
2022/05/22 00:44:40;;;;;;;359.17;213.07;;;;;;;21.33;53.62;99073.25;337572;29;1430;-79
2022/05/22 00:44:53;;;;;;;360.35;215.98;;;;;;;21.31;53.89;99062.75;337800;29;1469;-80
2022/05/22 00:45:04;;;;;;;361.10;215.20;;;;;;;21.34;53.67;99073.13;339702;29;1453;-80
2022/05/22 00:45:15;;;;;;;360.88;216.32;;;;;;;21.33;53.90;99073.25;340641;29;1254;-80
2022/05/22 00:45:25;;;;;;;360.25;214.98;;;;;;;21.33;54.07;99076.75;339742;29;1468;-80
2022/05/22 00:45:36;;;;;;;360.73;215.03;;;;;;;21.31;54.01;99073.41;338533;29;1465;-80
2022/05/22 00:45:47;;;;;;;360.42;214.88;;;;;;;21.29;53.65;99064.72;340941;29;1339;-80
2022/05/22 00:45:58;;;;;;;360.75;216.98;;;;;;;21.28;54.14;99079.00;338627;29;1426;-80
2022/05/22 00:46:11;;;;;;;360.60;216.68;;;;;;;21.28;54.08;99071.03;337040;29;1500;-80
2022/05/22 00:46:22;;;;;;;358.88;214.68;;;;;;;21.30;53.93;99071.72;338556;29;1497;-80
2022/05/22 00:46:33;;;;;;;358.80;213.65;;;;;;;21.30;53.91;99071.72;337528;29;1423;-80
2022/05/22 00:46:43;;;;;;;356.50;211.57;;;;;;;21.30;53.86;99079.72;339666;29;1579;-80
2022/05/22 00:46:54;;;;;;;355.07;207.20;;;;;;;21.31;54.09;99072.56;338264;29;1493;-80
2022/05/22 00:47:04;;;;;;;352.70;206.82;;;;;;;21.31;53.87;99075.22;339429;29;1528;-80
2022/05/22 00:47:15;;;;;;;352.93;208.90;;;;;;;21.31;53.99;99078.72;337637;29;1551;-80
2022/05/22 00:47:25;;;;;;;352.90;209.02;;;;;;;21.30;54.25;99069.06;341016;29;1381;-80
2022/05/22 00:47:35;;;;;;;353.20;207.67;;;;;;;21.31;53.88;99075.22;339193;29;1953;-80
2022/05/22 00:47:46;;;;;;;353.75;205.98;;;;;;;21.31;54.03;99070.75;340699;29;1441;-80
2022/05/22 00:47:56;;;;;;;354.33;206.03;;;;;;;21.31;54.10;99073.41;336539;29;1915;-80
2022/05/22 00:48:07;;;;;;;354.30;207.03;;;;;;;21.30;54.00;99077.03;339058;29;1730;-80
2022/05/22 00:48:17;;;;;;;354.58;209.07;;;;;;;21.30;53.63;99070.88;338903;29;1227;-80
2022/05/22 00:48:28;;;;;;;354.07;209.03;;;;;;;21.29;53.95;99078.03;336283;29;1537;-79
2022/05/22 00:48:40;;;;;;;354.40;207.73;;;;;;;21.29;53.64;99072.69;337794;29;1580;-79
2022/05/22 00:48:53;;;;;;;357.02;208.23;;;;;;;21.30;53.85;99071.72;336155;29;1534;-79
2022/05/22 00:49:03;;;;;;;358.15;209.07;;;;;;;21.31;53.70;99070.75;336948;29;1584;-79
2022/05/22 00:49:28;;;;;;;357.37;211.47;;;;;;;21.30;53.65;99069.06;339761;29;1410;-79
2022/05/22 00:49:41;;;;;;;354.75;209.57;;;;;;;21.30;53.85;99071.72;339469;29;1446;-79
2022/05/22 00:49:53;;;;;;;356.83;207.20;;;;;;;21.32;53.60;99074.25;335711;29;1556;-79
2022/05/22 00:50:04;;;;;;;360.05;210.25;;;;;;;21.33;53.70;99070.59;339575;29;1461;-79
2022/05/22 00:50:15;;;;;;;357.50;207.32;;;;;;;21.33;53.89;99068.78;338729;29;1249;-79
2022/05/22 00:50:25;;;;;;;357.47;209.73;;;;;;;21.34;54.04;99072.28;335838;29;1212;-79
2022/05/22 00:50:35;;;;;;;355.95;208.50;;;;;;;21.33;53.47;99066.09;339471;29;1364;-79
2022/05/22 00:50:46;;;;;;;356.97;212.93;;;;;;;21.34;53.59;99070.44;339413;29;1319;-79
2022/05/22 00:51:02;;;;;;;353.20;210.03;;;;;;;21.35;53.85;99072.13;341352;29;1489;-79
2022/05/22 00:51:25;;;;;;;351.65;209.60;;;;;;;21.38;53.42;99073.66;338700;29;1672;-78